Time;durP1;ratioP1;P1;durP2;ratioP2;P2;SDS_P1;SDS_P2;PMS_P1;PMS_P2;Temp;Humidity;BMP_temperature;BMP_pressure;BME280_temperature;BME280_humidity;BME280_pressure;Samples;Min_cycle;Max_cycle;Signal;HPM_P1;HPM_P2
2023/03/24 00:01:17;;;;;;;9.35;2.63;;;;;;;12.92;100.00;99756.44;5117825;27;20043;-66
2023/03/24 00:03:47;;;;;;;4.57;2.22;;;;;;;12.96;100.00;99765.63;5131114;27;20126;-65
2023/03/24 00:06:17;;;;;;;6.35;2.78;;;;;;;12.94;100.00;99749.56;5061451;28;20051;-65
2023/03/24 00:08:46;;;;;;;5.65;2.20;;;;;;;12.92;100.00;99748.25;5095171;28;20062;-65
2023/03/24 00:11:17;;;;;;;6.03;2.35;;;;;;;12.93;100.00;99736.19;5093684;28;20063;-66
2023/03/24 00:13:48;;;;;;;5.35;2.50;;;;;;;12.91;100.00;99728.28;5094042;28;20066;-66
2023/03/24 00:16:18;;;;;;;4.03;2.03;;;;;;;12.91;100.00;99727.47;5095325;28;20044;-64
2023/03/24 00:18:51;;;;;;;5.80;2.08;;;;;;;12.88;100.00;99723.44;5078026;28;20055;-66
2023/03/24 00:21:22;;;;;;;5.43;2.50;;;;;;;12.89;100.00;99713.31;5094624;27;20369;-67
2023/03/24 00:23:53;;;;;;;3.83;2.25;;;;;;;12.96;100.00;99713.69;5093919;28;20123;-68
2023/03/24 00:26:21;;;;;;;4.40;2.13;;;;;;;12.97;100.00;99707.09;5102698;28;20475;-66
2023/03/24 00:28:49;;;;;;;3.75;2.10;;;;;;;12.90;100.00;99710.28;5115240;28;20479;-66
2023/03/24 00:31:17;;;;;;;7.13;2.63;;;;;;;12.93;100.00;99714.31;5115018;28;20047;-66
2023/03/24 00:33:49;;;;;;;3.45;2.00;;;;;;;12.92;100.00;99708.03;5113746;28;20077;-66
2023/03/24 00:36:23;;;;;;;4.32;2.47;;;;;;;12.88;100.00;99690.63;5113961;28;20066;-66
2023/03/24 00:38:51;;;;;;;4.43;2.28;;;;;;;12.91;100.00;99711.88;5096878;27;20050;-66
2023/03/24 00:41:20;;;;;;;5.05;2.42;;;;;;;12.92;100.00;99702.56;5101591;28;20047;-65
2023/03/24 00:43:49;;;;;;;2.75;2.08;;;;;;;12.91;100.00;99700.94;5124562;28;20055;-65
2023/03/24 00:46:26;;;;;;;5.18;2.53;;;;;;;12.90;100.00;99687.59;5119376;28;20605;-65
2023/03/24 00:49:01;;;;;;;4.70;2.40;;;;;;;12.90;100.00;99687.59;5064509;28;20047;-65
2023/03/24 00:51:35;;;;;;;4.82;2.67;;;;;;;12.93;100.00;99678.75;5124147;28;20392;-65
2023/03/24 00:54:03;;;;;;;3.17;1.98;;;;;;;12.96;100.00;99678.13;5123342;28;20043;-65
2023/03/24 00:56:33;;;;;;;3.88;2.28;;;;;;;12.96;100.00;99675.41;5094402;28;20048;-66
2023/03/24 00:59:01;;;;;;;2.92;2.10;;;;;;;12.92;100.00;99682.63;5093422;28;20127;-65
2023/03/24 01:01:35;;;;;;;4.90;2.45;;;;;;;12.94;100.00;99672.16;5094293;28;20087;-65
2023/03/24 01:04:04;;;;;;;3.78;1.98;;;;;;;12.93;100.00;99657.69;5093106;28;20048;-65
2023/03/24 01:06:35;;;;;;;3.15;2.00;;;;;;;12.96;100.00;99659.00;5094250;28;20044;-65
2023/03/24 01:09:05;;;;;;;3.97;2.08;;;;;;;12.98;100.00;99656.75;5088426;28;20089;-66
2023/03/24 01:11:37;;;;;;;4.65;2.20;;;;;;;12.97;100.00;99657.88;5059198;28;20056;-65
2023/03/24 01:14:05;;;;;;;4.63;2.17;;;;;;;12.92;100.00;99653.34;5082186;28;20105;-65
2023/03/24 01:16:33;;;;;;;3.15;1.90;;;;;;;12.92;100.00;99647.09;5113224;28;20047;-66
2023/03/24 01:19:00;;;;;;;2.95;2.03;;;;;;;12.95;100.00;99651.91;5112758;28;20054;-66
2023/03/24 01:21:28;;;;;;;4.38;2.10;;;;;;;12.93;100.00;99638.56;5114443;28;20031;-66
2023/03/24 01:23:56;;;;;;;4.55;2.35;;;;;;;12.95;100.00;99638.25;5113123;28;20513;-65
2023/03/24 01:26:24;;;;;;;3.05;1.98;;;;;;;12.94;100.00;99640.19;5096208;28;20055;-68
2023/03/24 01:28:52;;;;;;;2.45;2.00;;;;;;;12.93;100.00;99632.28;5096603;28;20044;-66
2023/03/24 01:31:19;;;;;;;3.92;1.95;;;;;;;12.93;100.00;99626.81;5112734;27;20040;-65
2023/03/24 01:33:47;;;;;;;2.67;2.05;;;;;;;12.91;100.00;99634.53;5100171;28;20055;-65
2023/03/24 01:36:15;;;;;;;3.88;2.20;;;;;;;12.89;100.00;99626.66;5104685;28;20076;-65
2023/03/24 01:38:43;;;;;;;2.67;1.85;;;;;;;12.95;100.00;99624.59;5091987;28;20052;-66
2023/03/24 01:41:10;;;;;;;4.63;2.50;;;;;;;12.95;100.00;99616.38;5093725;28;20118;-67
2023/03/24 01:43:38;;;;;;;3.45;2.20;;;;;;;12.92;100.00;99614.28;5092629;28;20044;-64
2023/03/24 01:46:18;;;;;;;4.45;2.60;;;;;;;12.90;100.00;99614.59;5075762;28;20048;-66
2023/03/24 01:49:06;;;;;;;2.70;2.20;;;;;;;12.89;100.00;99609.41;5058304;28;20097;-66
2023/03/24 01:51:42;;;;;;;3.05;1.92;;;;;;;12.89;100.00;99603.94;5075744;28;20055;-66
2023/03/24 01:54:20;;;;;;;2.85;2.10;;;;;;;12.96;100.00;99604.31;5092297;28;20131;-66
2023/03/24 01:57:01;;;;;;;3.28;2.13;;;;;;;12.96;100.00;99607.03;5076293;28;20036;-66
2023/03/24 01:59:34;;;;;;;4.45;2.50;;;;;;;12.88;100.00;99599.63;5092760;28;20052;-66
2023/03/24 02:02:14;;;;;;;3.13;2.15;;;;;;;12.84;100.00;99595.88;5080501;28;20516;-67
2023/03/24 02:05:06;;;;;;;2.63;1.92;;;;;;;12.82;100.00;99590.75;5098598;28;20163;-66
2023/03/24 02:08:14;;;;;;;3.15;2.17;;;;;;;12.84;100.00;99590.41;5081497;28;20100;-66
2023/03/24 02:10:43;;;;;;;3.50;1.80;;;;;;;12.81;100.00;99591.06;5094685;28;20056;-66
2023/03/24 02:13:12;;;;;;;4.25;2.50;;;;;;;12.76;100.00;99579.13;5112684;28;20040;-66
2023/03/24 02:16:01;;;;;;;3.63;2.08;;;;;;;12.73;100.00;99590.69;5095818;28;20449;-65
2023/03/24 02:18:46;;;;;;;2.83;2.15;;;;;;;12.78;100.00;99574.16;5092839;28;20097;-66
2023/03/24 02:21:33;;;;;;;4.30;2.20;;;;;;;12.78;100.00;99587.03;5103244;28;20056;-67
2023/03/24 02:24:16;;;;;;;4.25;2.28;;;;;;;12.78;100.00;99582.34;5100343;28;20088;-65
2023/03/24 02:26:52;;;;;;;2.25;2.05;;;;;;;12.77;100.00;99580.75;5104382;28;20051;-66
2023/03/24 02:29:53;;;;;;;4.57;2.35;;;;;;;12.82;100.00;99588.03;5085445;28;20127;-66
2023/03/24 02:32:41;;;;;;;4.35;2.30;;;;;;;12.78;100.00;99582.34;5045333;28;20056;-66
2023/03/24 02:35:46;;;;;;;5.38;2.40;;;;;;;12.73;100.00;99598.88;5076545;28;20048;-65
2023/03/24 02:38:35;;;;;;;4.03;2.28;;;;;;;12.69;100.00;99595.16;5092823;28;20043;-65
2023/03/24 02:41:19;;;;;;;3.55;2.25;;;;;;;12.67;100.00;99605.59;5078899;28;20071;-65
2023/03/24 02:43:53;;;;;;;4.47;2.40;;;;;;;12.67;100.00;99594.66;5093857;28;20099;-66
2023/03/24 02:46:34;;;;;;;4.85;2.28;;;;;;;12.67;100.00;99586.47;5095576;28;20484;-66
2023/03/24 02:49:20;;;;;;;3.17;1.90;;;;;;;12.67;100.00;99575.53;5091861;28;20059;-66
2023/03/24 02:52:07;;;;;;;5.88;2.35;;;;;;;12.64;100.00;99576.16;5096269;28;20097;-66
2023/03/24 02:54:47;;;;;;;4.38;2.78;;;;;;;12.61;100.00;99590.47;5079177;28;20040;-64
2023/03/24 02:57:27;;;;;;;6.80;2.70;;;;;;;12.60;100.00;99602.50;5078442;28;20055;-64
2023/03/24 03:00:46;;;;;;;4.88;2.70;;;;;;;12.60;100.00;99596.22;5095658;28;20067;-66
2023/03/24 03:03:44;;;;;;;4.63;2.40;;;;;;;12.60;100.00;99602.50;5108184;27;20046;-65
2023/03/24 03:06:16;;;;;;;3.90;2.30;;;;;;;12.60;100.00;99601.69;5078052;28;20102;-64
2023/03/24 03:08:46;;;;;;;4.30;2.40;;;;;;;12.60;100.00;99616.16;5095416;28;20044;-67
2023/03/24 03:11:16;;;;;;;3.60;2.38;;;;;;;12.59;100.00;99617.28;5094811;28;20144;-67
2023/03/24 03:13:51;;;;;;;4.72;2.30;;;;;;;12.59;100.00;99625.47;5078699;28;20036;-66
2023/03/24 03:16:24;;;;;;;4.80;2.73;;;;;;;12.57;100.00;99647.63;5109172;27;20407;-66
2023/03/24 03:18:58;;;;;;;5.10;2.67;;;;;;;12.55;100.00;99654.53;5099113;28;20044;-66
2023/03/24 03:21:30;;;;;;;2.65;2.45;;;;;;;12.53;100.00;99651.28;5099403;28;20113;-65
2023/03/24 03:24:14;;;;;;;4.32;2.25;;;;;;;12.48;100.00;99663.19;5082015;28;20039;-65
2023/03/24 03:26:44;;;;;;;3.45;2.22;;;;;;;12.45;100.00;99687.56;5082079;28;20051;-65
2023/03/24 03:29:16;;;;;;;3.40;1.98;;;;;;;12.33;100.00;99691.63;5087310;28;20122;-65
2023/03/24 03:31:51;;;;;;;4.57;1.80;;;;;;;12.28;100.00;99699.94;5078114;28;20047;-67
2023/03/24 03:34:34;;;;;;;4.22;1.95;;;;;;;12.21;100.00;99698.75;5094657;27;20147;-69
2023/03/24 03:37:17;;;;;;;3.70;1.55;;;;;;;12.17;100.00;99695.84;5094879;28;20123;-65
2023/03/24 03:39:53;;;;;;;3.40;1.55;;;;;;;12.14;100.00;99702.69;5094327;28;20044;-66
2023/03/24 03:42:21;;;;;;;5.63;2.25;;;;;;;12.07;100.00;99721.41;5078369;28;20044;-66
2023/03/24 03:44:50;;;;;;;3.80;1.75;;;;;;;12.05;100.00;99733.75;5096449;27;20051;-66
2023/03/24 03:47:20;;;;;;;6.05;2.30;;;;;;;11.98;100.00;99757.91;5078084;28;20051;-66
2023/03/24 03:49:49;;;;;;;5.10;1.85;;;;;;;11.94;100.00;99758.53;5095111;28;20123;-66
2023/03/24 03:52:17;;;;;;;7.40;1.92;;;;;;;11.89;100.00;99747.72;5077940;28;20052;-67
2023/03/24 03:54:46;;;;;;;7.10;2.30;;;;;;;11.86;100.00;99756.50;5077590;28;20106;-67
2023/03/24 03:57:14;;;;;;;6.90;2.40;;;;;;;11.80;100.00;99773.25;5079804;27;20043;-67
2023/03/24 04:00:18;;;;;;;4.90;2.00;;;;;;;11.77;100.00;99782.88;5105932;28;20109;-66
2023/03/24 04:03:36;;;;;;;7.80;2.45;;;;;;;11.76;100.00;99766.78;5100485;28;20097;-65
2023/03/24 04:06:44;;;;;;;10.18;2.75;;;;;;;11.67;100.00;99772.94;5098567;28;20092;-66
2023/03/24 04:09:32;;;;;;;5.30;2.40;;;;;;;11.62;100.00;99769.50;5115456;28;20067;-66
2023/03/24 04:12:39;;;;;;;7.57;2.60;;;;;;;11.60;100.00;99772.53;5093889;28;20048;-66
2023/03/24 04:15:43;;;;;;;9.15;2.67;;;;;;;11.60;100.00;99777.19;5079832;28;20158;-66
2023/03/24 04:18:53;;;;;;;4.72;2.17;;;;;;;11.59;100.00;99790.00;5110895;28;20125;-66
2023/03/24 04:21:32;;;;;;;6.03;2.50;;;;;;;11.59;100.00;99808.28;5076915;28;20044;-66
2023/03/24 04:24:25;;;;;;;6.35;2.50;;;;;;;11.59;100.00;99808.28;5070871;28;20046;-65
2023/03/24 04:27:20;;;;;;;8.43;2.70;;;;;;;11.59;100.00;99825.47;5078458;28;20060;-66
2023/03/24 04:30:13;;;;;;;6.95;2.83;;;;;;;11.59;100.00;99844.56;5083954;27;20052;-65
2023/03/24 04:32:57;;;;;;;8.40;2.85;;;;;;;11.54;100.00;99838.38;5081633;28;20044;-65
2023/03/24 04:35:34;;;;;;;6.25;2.50;;;;;;;11.56;100.00;99836.19;5117739;27;20035;-65
2023/03/24 04:38:26;;;;;;;11.10;3.70;;;;;;;11.57;100.00;99832.31;5107585;27;20074;-65
2023/03/24 04:41:16;;;;;;;11.45;3.10;;;;;;;11.55;100.00;99840.81;5120894;27;20051;-65
2023/03/24 04:43:53;;;;;;;14.00;3.65;;;;;;;11.52;100.00;99836.78;5126189;27;20134;-66
2023/03/24 04:46:22;;;;;;;8.10;3.00;;;;;;;11.51;100.00;99854.25;5143539;27;20047;-67
2023/03/24 04:49:24;;;;;;;9.50;3.17;;;;;;;11.51;100.00;99856.97;5070635;28;20058;-66
2023/03/24 04:51:52;;;;;;;11.70;3.90;;;;;;;11.47;99.93;99864.16;5094754;28;20128;-67
2023/03/24 04:54:26;;;;;;;12.00;3.40;;;;;;;11.43;100.00;99865.03;5078004;28;20139;-68
2023/03/24 04:57:02;;;;;;;9.32;2.90;;;;;;;11.41;100.00;99864.53;5077665;28;20492;-66
2023/03/24 04:59:39;;;;;;;12.13;3.40;;;;;;;11.35;100.00;99877.41;5095454;27;20039;-66
2023/03/24 05:02:07;;;;;;;12.98;3.85;;;;;;;11.34;100.00;99861.34;5092975;28;20044;-66
2023/03/24 05:04:38;;;;;;;11.98;2.90;;;;;;;11.30;100.00;99872.03;5094026;28;20071;-66
2023/03/24 05:07:24;;;;;;;11.68;3.22;;;;;;;11.28;100.00;99874.25;5093009;28;20051;-66
2023/03/24 05:09:56;;;;;;;12.73;3.10;;;;;;;11.29;100.00;99875.88;5076897;28;20070;-65
2023/03/24 05:12:24;;;;;;;13.75;3.47;;;;;;;11.34;100.00;99883.97;5100479;27;20449;-66
2023/03/24 05:15:15;;;;;;;10.73;2.88;;;;;;;11.34;100.00;99880.44;5094273;28;20051;-66
2023/03/24 05:17:46;;;;;;;11.98;3.47;;;;;;;11.32;100.00;99878.00;5096528;28;20442;-66
2023/03/24 05:20:14;;;;;;;7.07;2.58;;;;;;;11.33;100.00;99882.38;5096575;28;20050;-66
2023/03/24 05:22:47;;;;;;;12.95;3.13;;;;;;;11.32;100.00;99886.19;5096045;28;20049;-66
2023/03/24 05:25:16;;;;;;;11.23;3.05;;;;;;;11.31;100.00;99895.50;5112735;28;20043;-66
2023/03/24 05:27:46;;;;;;;10.23;3.25;;;;;;;11.32;100.00;99899.03;5075562;28;20052;-66
2023/03/24 05:30:20;;;;;;;12.43;3.20;;;;;;;11.29;100.00;99908.59;5092431;28;20043;-66
2023/03/24 05:32:52;;;;;;;13.45;3.25;;;;;;;11.27;100.00;99910.81;5075058;28;20044;-66
2023/03/24 05:35:20;;;;;;;11.38;3.30;;;;;;;11.26;100.00;99917.38;5092719;28;20044;-66
2023/03/24 05:37:48;;;;;;;10.85;3.38;;;;;;;11.26;100.00;99922.84;5075038;28;20048;-67
2023/03/24 05:40:16;;;;;;;10.85;2.85;;;;;;;11.24;100.00;99920.38;5074999;28;20050;-67
2023/03/24 05:42:51;;;;;;;11.25;3.00;;;;;;;11.21;100.00;99920.19;5107144;28;20088;-66
2023/03/24 05:45:20;;;;;;;13.32;3.65;;;;;;;11.19;100.00;99922.38;5111680;27;20039;-65
2023/03/24 05:47:48;;;;;;;14.70;4.00;;;;;;;11.20;100.00;99924.00;5078859;28;20485;-66
2023/03/24 05:50:22;;;;;;;14.13;3.88;;;;;;;11.20;100.00;99932.97;5107789;28;20048;-66
2023/03/24 05:52:51;;;;;;;17.98;4.25;;;;;;;11.19;100.00;99936.81;5096735;27;20461;-70
2023/03/24 05:55:39;;;;;;;11.55;3.50;;;;;;;11.22;100.00;99929.97;5090865;28;20044;-65
2023/03/24 05:58:23;;;;;;;12.77;4.22;;;;;;;11.22;100.00;99940.88;5078016;28;20090;-67
2023/03/24 06:00:56;;;;;;;11.60;3.22;;;;;;;11.26;100.00;99936.47;5100405;28;20479;-66
2023/03/24 06:03:37;;;;;;;12.90;3.88;;;;;;;11.28;100.00;99939.69;5089549;28;20056;-66
2023/03/24 06:06:15;;;;;;;12.13;3.40;;;;;;;11.28;100.00;99940.53;5060599;28;20135;-67
2023/03/24 06:08:44;;;;;;;13.32;3.58;;;;;;;11.29;100.00;99938.59;5074748;28;20063;-66
2023/03/24 06:11:12;;;;;;;13.60;3.63;;;;;;;11.27;100.00;99938.06;5074795;28;20075;-66
2023/03/24 06:13:50;;;;;;;13.93;4.45;;;;;;;11.24;100.00;99941.41;5079248;28;20040;-67
2023/03/24 06:16:22;;;;;;;9.20;3.30;;;;;;;11.23;100.00;99945.22;5110258;28;20048;-67
2023/03/24 06:18:56;;;;;;;13.63;3.30;;;;;;;11.22;100.00;99947.13;5112267;28;20098;-66
2023/03/24 06:21:50;;;;;;;13.35;3.45;;;;;;;11.23;100.00;99951.50;5111261;28;20056;-66
2023/03/24 06:24:22;;;;;;;10.95;2.92;;;;;;;11.34;100.00;99954.88;5095647;28;20036;-67
2023/03/24 06:26:51;;;;;;;13.35;3.70;;;;;;;11.29;100.00;99952.25;5101955;28;20588;-66
2023/03/24 06:29:19;;;;;;;8.93;2.85;;;;;;;11.40;100.00;99953.72;4383814;28;10000744;-68
2023/03/24 06:31:48;;;;;;;10.38;3.00;;;;;;;11.38;100.00;99957.84;5100486;28;20268;-68
2023/03/24 06:34:18;;;;;;;11.60;3.17;;;;;;;11.36;100.00;99957.34;5096458;28;20095;-67
2023/03/24 06:37:02;;;;;;;8.48;2.75;;;;;;;11.25;100.00;99964.81;5080395;28;20097;-68
2023/03/24 06:39:30;;;;;;;12.35;4.05;;;;;;;11.29;100.00;99963.16;5098635;28;20048;-66
2023/03/24 06:41:57;;;;;;;14.25;3.25;;;;;;;11.28;100.00;99966.97;5064765;28;20086;-67
2023/03/24 06:44:25;;;;;;;11.45;3.50;;;;;;;11.28;100.00;99966.97;5116136;27;20098;-68
2023/03/24 06:46:53;;;;;;;20.52;3.60;;;;;;;11.33;100.00;99969.63;5088342;28;20126;-69
2023/03/24 06:49:21;;;;;;;13.43;3.70;;;;;;;11.25;100.00;99973.00;5093648;28;20575;-67
2023/03/24 06:51:48;;;;;;;14.07;3.90;;;;;;;11.22;100.00;99981.78;5076505;28;20048;-65
2023/03/24 06:54:17;;;;;;;10.02;2.90;;;;;;;11.27;100.00;99981.72;5088118;28;20399;-67
2023/03/24 06:56:45;;;;;;;11.85;3.20;;;;;;;11.43;100.00;99985.84;5057544;28;20770;-65
2023/03/24 06:59:16;;;;;;;9.13;3.05;;;;;;;11.40;100.00;99986.44;5062278;28;20434;-66
2023/03/24 07:01:43;;;;;;;12.77;3.58;;;;;;;11.35;99.03;99991.16;5107902;28;20051;-65
2023/03/24 07:04:24;;;;;;;13.48;3.70;;;;;;;11.44;100.00;99987.47;5094915;28;20496;-66
2023/03/24 07:07:00;;;;;;;16.40;3.63;;;;;;;11.42;99.55;99994.31;5080260;28;20044;-66
2023/03/24 07:10:02;;;;;;;8.02;2.85;;;;;;;11.41;100.00;99992.72;5082565;28;20131;-68
2023/03/24 07:12:32;;;;;;;14.05;3.70;;;;;;;11.35;99.29;99999.34;5062004;28;20064;-71
2023/03/24 07:15:02;;;;;;;13.93;3.22;;;;;;;11.33;99.30;100002.38;5084499;28;20067;-65
2023/03/24 07:17:30;;;;;;;18.40;3.78;;;;;;;11.37;100.00;100003.38;5077921;28;20043;-65
2023/03/24 07:20:30;;;;;;;15.75;3.83;;;;;;;11.40;100.00;100008.28;5094915;28;20048;-65
2023/03/24 07:23:08;;;;;;;18.40;4.25;;;;;;;11.36;100.00;100004.50;5096617;27;20048;-66
2023/03/24 07:25:54;;;;;;;10.63;3.40;;;;;;;11.36;100.00;100012.69;5116506;28;20050;-65
2023/03/24 07:28:40;;;;;;;15.93;4.50;;;;;;;11.44;100.00;100020.19;5115847;28;20462;-65
2023/03/24 07:31:09;;;;;;;15.90;3.72;;;;;;;11.49;100.00;100011.13;5079992;28;20137;-65
2023/03/24 07:33:38;;;;;;;15.15;4.07;;;;;;;11.50;100.00;100019.03;5096922;27;20051;-64
2023/03/24 07:36:07;;;;;;;14.98;4.45;;;;;;;11.41;100.00;100007.16;5060647;28;20101;-66
2023/03/24 07:38:37;;;;;;;18.27;4.65;;;;;;;11.34;100.00;100016.81;5094726;28;20052;-67
2023/03/24 07:41:09;;;;;;;17.15;4.55;;;;;;;11.29;100.00;100023.13;5094659;28;20040;-67
2023/03/24 07:43:41;;;;;;;14.25;3.97;;;;;;;11.25;100.00;100027.53;5094699;28;20072;-67
2023/03/24 07:46:23;;;;;;;12.50;4.05;;;;;;;11.30;100.00;100019.28;5080418;28;20048;-66
2023/03/24 07:48:51;;;;;;;18.17;4.63;;;;;;;11.35;100.00;100026.59;5078091;28;20109;-67
2023/03/24 07:51:20;;;;;;;12.30;3.70;;;;;;;11.37;100.00;100032.59;5079041;28;20064;-67
2023/03/24 07:53:55;;;;;;;17.38;4.60;;;;;;;11.41;100.00;100039.09;5094830;28;20467;-67
2023/03/24 07:56:30;;;;;;;18.13;4.40;;;;;;;11.44;100.00;100042.03;5079561;28;20044;-66
2023/03/24 07:59:00;;;;;;;16.83;3.78;;;;;;;11.51;100.00;100037.00;5078830;28;20058;-66
2023/03/24 08:01:40;;;;;;;15.65;4.07;;;;;;;11.49;99.44;100052.06;5063035;28;20580;-67
2023/03/24 08:04:13;;;;;;;16.50;4.25;;;;;;;11.51;100.00;100056.13;5077678;28;20055;-66
2023/03/24 08:06:56;;;;;;;15.70;4.07;;;;;;;11.58;99.65;100058.50;5084974;27;20134;-66
2023/03/24 08:09:24;;;;;;;11.63;3.50;;;;;;;11.57;99.33;100056.03;5106189;27;20036;-66
2023/03/24 08:11:51;;;;;;;15.52;4.43;;;;;;;11.58;99.48;100057.69;5116917;28;20435;-66
2023/03/24 08:14:19;;;;;;;21.65;4.47;;;;;;;11.61;99.41;100051.63;5117239;27;20571;-65
2023/03/24 08:16:47;;;;;;;14.88;3.83;;;;;;;11.63;99.53;100063.06;5100548;27;20070;-65
2023/03/24 08:19:15;;;;;;;13.18;3.85;;;;;;;11.63;98.39;100060.34;5078688;28;20040;-65
2023/03/24 08:21:43;;;;;;;17.58;4.85;;;;;;;11.77;97.31;100055.78;5115149;27;20043;-66
2023/03/24 08:24:11;;;;;;;12.35;3.58;;;;;;;11.75;97.65;100051.72;5117220;28;20086;-65
2023/03/24 08:26:39;;;;;;;16.83;4.43;;;;;;;11.73;97.53;100062.91;5124904;28;20048;-67
2023/03/24 08:29:06;;;;;;;16.25;4.90;;;;;;;11.77;98.15;100068.63;5125212;28;20060;-67
2023/03/24 08:31:35;;;;;;;16.88;4.10;;;;;;;11.72;97.16;100073.03;5114925;28;20059;-66
2023/03/24 08:34:05;;;;;;;16.65;3.85;;;;;;;11.75;97.85;100077.09;5122365;28;20051;-65
2023/03/24 08:36:33;;;;;;;17.77;4.70;;;;;;;11.73;98.75;100082.03;5125953;28;20069;-66
2023/03/24 08:39:00;;;;;;;12.85;3.83;;;;;;;11.69;98.37;100081.00;5112409;28;20359;-66
2023/03/24 08:41:36;;;;;;;12.75;4.00;;;;;;;11.73;98.49;100087.47;5102403;28;20052;-66
2023/03/24 08:44:04;;;;;;;16.02;3.83;;;;;;;11.82;98.39;100085.72;5094632;28;20106;-66
2023/03/24 08:46:34;;;;;;;18.27;4.40;;;;;;;11.87;99.55;100096.59;5075470;28;20097;-66
2023/03/24 08:49:02;;;;;;;18.27;5.55;;;;;;;11.93;100.00;100081.78;5114205;28;20067;-67
2023/03/24 08:51:31;;;;;;;13.05;3.92;;;;;;;11.82;97.32;100095.84;5114751;27;20056;-67
2023/03/24 08:54:00;;;;;;;19.10;5.18;;;;;;;11.94;99.89;100094.31;5113721;28;20394;-67
2023/03/24 08:56:28;;;;;;;16.83;3.85;;;;;;;11.86;97.29;100092.22;5114301;28;20440;-66
2023/03/24 08:58:56;;;;;;;14.50;3.67;;;;;;;11.92;97.40;100106.63;5114898;28;20047;-67
2023/03/24 09:01:24;;;;;;;15.77;4.03;;;;;;;11.82;94.73;100093.91;5113599;28;20044;-67
2023/03/24 09:03:53;;;;;;;12.75;3.78;;;;;;;11.81;96.00;100103.22;5114325;28;20047;-66
2023/03/24 09:06:20;;;;;;;15.85;4.20;;;;;;;11.83;95.30;100103.72;5106967;28;20157;-65
2023/03/24 09:08:48;;;;;;;12.15;3.47;;;;;;;11.81;94.79;100108.69;5094045;28;20134;-66
2023/03/24 09:11:17;;;;;;;16.92;4.20;;;;;;;11.78;94.79;100109.25;5075568;28;20056;-65
2023/03/24 09:13:46;;;;;;;12.85;4.45;;;;;;;11.83;95.87;100098.25;5094277;28;20056;-65
2023/03/24 09:16:14;;;;;;;14.73;3.95;;;;;;;11.77;96.47;100099.44;5094919;28;20044;-65
2023/03/24 09:18:42;;;;;;;12.48;3.97;;;;;;;11.79;98.33;100113.63;5094082;28;20048;-66
2023/03/24 09:21:10;;;;;;;14.88;3.75;;;;;;;11.83;99.51;100105.63;5095137;28;20450;-66
2023/03/24 09:23:37;;;;;;;10.85;3.30;;;;;;;11.85;99.92;100106.97;5104911;28;20067;-66
2023/03/24 09:26:06;;;;;;;15.88;4.38;;;;;;;11.88;99.67;100109.16;5113746;28;20054;-66
2023/03/24 09:28:34;;;;;;;17.42;4.13;;;;;;;11.82;97.85;100114.94;5096215;28;20044;-65
2023/03/24 09:31:04;;;;;;;14.90;3.78;;;;;;;11.81;97.05;100116.03;5113981;28;20057;-66
2023/03/24 09:33:33;;;;;;;12.73;3.70;;;;;;;11.81;98.00;100116.88;5108460;28;20051;-66
2023/03/24 09:36:02;;;;;;;13.27;3.92;;;;;;;11.84;96.62;100116.28;5093623;28;20054;-66
2023/03/24 09:38:30;;;;;;;15.32;4.00;;;;;;;11.95;95.14;100111.50;5075646;28;20125;-66
2023/03/24 09:41:01;;;;;;;18.45;4.68;;;;;;;12.06;97.59;100106.72;5091952;28;20048;-66
2023/03/24 09:44:11;;;;;;;14.25;4.25;;;;;;;12.20;99.51;100104.06;5092937;28;20055;-66
2023/03/24 09:46:53;;;;;;;13.48;4.13;;;;;;;12.12;95.37;100121.91;5092845;28;20055;-67
2023/03/24 09:49:28;;;;;;;15.20;4.13;;;;;;;12.09;94.49;100117.03;5092151;28;20094;-66
2023/03/24 09:52:01;;;;;;;13.00;3.80;;;;;;;12.03;94.83;100134.63;5092501;28;20109;-66
2023/03/24 09:54:57;;;;;;;11.75;3.65;;;;;;;12.01;97.27;100132.19;5082594;28;20035;-66
2023/03/24 09:57:27;;;;;;;11.48;3.72;;;;;;;11.97;99.36;100141.25;5103800;27;20442;-68
2023/03/24 09:59:55;;;;;;;12.60;3.72;;;;;;;11.91;99.55;100144.03;5097778;28;20126;-66
2023/03/24 10:02:26;;;;;;;14.73;3.83;;;;;;;11.96;99.91;100142.38;5100480;28;20105;-66
2023/03/24 10:04:54;;;;;;;14.07;3.97;;;;;;;12.04;99.65;100136.22;5100184;27;20035;-65
2023/03/24 10:07:30;;;;;;;12.57;3.75;;;;;;;12.07;100.00;100138.38;5100253;28;20043;-67
2023/03/24 10:09:59;;;;;;;11.93;3.63;;;;;;;12.12;99.23;100149.22;5100274;28;20064;-66
2023/03/24 10:12:33;;;;;;;12.35;3.53;;;;;;;12.11;99.01;100153.06;5099414;28;20058;-66
2023/03/24 10:15:10;;;;;;;12.77;4.15;;;;;;;12.13;97.87;100150.84;5099665;27;20055;-66
2023/03/24 10:17:48;;;;;;;16.13;4.35;;;;;;;12.17;97.47;100162.81;5100019;28;20495;-66
2023/03/24 10:20:34;;;;;;;15.60;5.10;;;;;;;12.24;99.29;100151.50;5098748;28;20071;-65
2023/03/24 10:23:11;;;;;;;13.48;3.58;;;;;;;12.26;97.15;100154.75;5100007;28;20135;-65
2023/03/24 10:25:50;;;;;;;15.35;4.70;;;;;;;12.29;97.91;100157.72;5100988;27;20048;-68
2023/03/24 10:28:19;;;;;;;11.10;3.85;;;;;;;12.21;95.27;100169.28;5081658;28;20480;-66
2023/03/24 10:30:48;;;;;;;15.77;4.13;;;;;;;12.21;95.77;100152.91;5099466;28;20036;-66
2023/03/24 10:33:16;;;;;;;15.32;3.85;;;;;;;12.17;95.64;100160.09;5112286;28;20047;-67
2023/03/24 10:36:02;;;;;;;12.00;3.90;;;;;;;12.17;95.60;100154.63;5118621;28;20050;-66
2023/03/24 10:38:32;;;;;;;13.30;3.78;;;;;;;12.15;95.29;100154.91;5118635;28;20104;-67
2023/03/24 10:41:00;;;;;;;14.02;3.75;;;;;;;12.20;96.22;100156.75;5118967;28;20057;-67
2023/03/24 10:43:28;;;;;;;12.00;3.80;;;;;;;12.23;95.87;100161.63;5102365;28;20105;-67
2023/03/24 10:45:57;;;;;;;12.77;4.22;;;;;;;12.23;94.39;100145.22;5102145;28;20043;-67
2023/03/24 10:48:38;;;;;;;16.50;4.13;;;;;;;12.25;93.92;100155.88;5104552;27;20048;-67
2023/03/24 10:51:09;;;;;;;15.75;3.67;;;;;;;12.26;94.11;100154.75;5098121;28;20048;-66
2023/03/24 10:53:38;;;;;;;12.23;3.60;;;;;;;12.24;94.14;100152.34;5081810;28;20040;-64
2023/03/24 10:56:06;;;;;;;15.45;4.15;;;;;;;12.28;94.30;100149.81;5098674;28;20048;-65
2023/03/24 10:58:41;;;;;;;12.32;3.35;;;;;;;12.28;93.49;100139.69;5082819;28;20062;-66
2023/03/24 11:01:26;;;;;;;11.45;3.55;;;;;;;12.33;93.04;100145.06;5110090;28;20100;-65
2023/03/24 11:03:59;;;;;;;15.07;3.90;;;;;;;12.43;92.40;100146.03;5118742;28;20048;-66
2023/03/24 11:06:27;;;;;;;13.55;3.95;;;;;;;12.46;90.12;100137.22;5103912;27;20048;-66
2023/03/24 11:09:40;;;;;;;16.30;3.72;;;;;;;12.50;89.08;100143.75;5098972;28;20048;-66
2023/03/24 11:12:29;;;;;;;13.18;3.70;;;;;;;12.41;88.21;100132.69;5022681;28;20096;-66
2023/03/24 11:15:19;;;;;;;17.55;3.88;;;;;;;12.36;89.49;100139.03;5095184;28;20375;-67
2023/03/24 11:17:58;;;;;;;11.57;3.30;;;;;;;12.38;89.96;100146.13;5102008;28;20425;-65
2023/03/24 11:20:26;;;;;;;;;;;;;;;12.42;87.55;100138.97;5116986;28;20043;-66
2023/03/24 11:23:14;;;;;;;10.50;3.28;;;;;;;12.45;86.29;100135.63;5115296;28;20429;-66
2023/03/24 11:25:50;;;;;;;11.27;3.28;;;;;;;12.48;84.79;100145.94;5113957;27;20114;-66
2023/03/24 11:28:23;;;;;;;12.32;3.63;;;;;;;12.53;86.21;100143.13;5098968;28;20063;-66
2023/03/24 11:30:53;;;;;;;12.85;3.92;;;;;;;12.55;87.29;100147.22;5098172;28;20097;-67
2023/03/24 11:33:28;;;;;;;13.05;3.75;;;;;;;12.55;87.19;100146.38;5097927;28;20074;-65
2023/03/24 11:36:29;;;;;;;7.97;2.97;;;;;;;12.54;85.73;100142.03;5098871;28;20050;-66
2023/03/24 11:39:11;;;;;;;9.05;2.90;;;;;;;12.51;84.51;100137.19;5095245;28;20136;-66
2023/03/24 11:41:42;;;;;;;11.73;3.05;;;;;;;12.44;84.29;100145.75;5094841;28;20043;-65
2023/03/24 11:44:21;;;;;;;14.70;3.70;;;;;;;12.41;87.41;100145.50;5094829;28;20040;-66
2023/03/24 11:46:58;;;;;;;10.02;3.13;;;;;;;12.48;90.24;100140.50;5095839;28;20066;-66
2023/03/24 11:49:30;;;;;;;11.57;3.30;;;;;;;12.48;89.45;100141.31;5098039;28;20553;-66
2023/03/24 11:51:59;;;;;;;9.57;2.85;;;;;;;12.49;88.37;100144.84;5095801;28;20062;-65
2023/03/24 11:54:35;;;;;;;15.27;3.92;;;;;;;12.48;88.47;100148.69;5077309;28;20048;-65
2023/03/24 11:57:10;;;;;;;13.13;3.60;;;;;;;12.46;89.52;100146.28;5095344;28;20043;-66